createdAt,value
2018-05-04T00:00:04.198Z,5
2018-05-04T00:01:03.972Z,4.937
2018-05-04T00:02:04.284Z,4.875
2018-05-04T00:03:03.690Z,4.875
2018-05-04T00:04:03.875Z,4.875
2018-05-04T00:05:04.240Z,4.875
2018-05-04T00:06:03.880Z,4.937
2018-05-04T00:07:04.282Z,4.937
2018-05-04T00:08:03.855Z,4.937
2018-05-04T00:09:03.611Z,4.937
2018-05-04T00:10:03.997Z,4.875
2018-05-04T00:11:05.165Z,4.875
2018-05-04T00:12:03.621Z,4.875
2018-05-04T00:13:04.173Z,4.875
2018-05-04T00:14:03.389Z,4.812
2018-05-04T00:15:03.748Z,4.75
2018-05-04T00:16:04.450Z,4.687
2018-05-04T00:17:03.773Z,4.625
2018-05-04T00:18:03.948Z,4.687
2018-05-04T00:19:03.909Z,4.625
2018-05-04T00:20:05.633Z,4.5
2018-05-04T00:21:04.542Z,4.375
2018-05-04T00:22:03.871Z,4.187
2018-05-04T00:23:04.778Z,4.062
2018-05-04T00:24:04.371Z,3.937
2018-05-04T00:25:03.987Z,3.875
2018-05-04T00:26:03.743Z,3.75
2018-05-04T00:27:04.118Z,3.625
2018-05-04T00:28:03.660Z,3.625
2018-05-04T00:29:04.191Z,3.562
2018-05-04T00:30:03.796Z,3.5
2018-05-04T00:31:04.049Z,3.437
2018-05-04T00:32:03.786Z,3.375
2018-05-04T00:33:03.739Z,3.312
2018-05-04T00:34:04.543Z,3.312
2018-05-04T00:35:03.957Z,3.25
2018-05-04T00:36:03.510Z,3.187
2018-05-04T00:37:03.572Z,3.187
2018-05-04T00:38:03.448Z,3.375
2018-05-04T00:39:05.040Z,3.375
2018-05-04T00:40:03.693Z,3.312
2018-05-04T00:41:04.405Z,3.5
2018-05-04T00:42:04.032Z,3.5
2018-05-04T00:43:03.633Z,3.5
2018-05-04T00:44:04.494Z,3.625
2018-05-04T00:45:04.095Z,3.687
2018-05-04T00:46:03.472Z,3.625
2018-05-04T00:47:03.982Z,3.562
2018-05-04T00:48:03.649Z,3.5
2018-05-04T00:49:03.935Z,3.437
2018-05-04T00:50:03.845Z,3.375
2018-05-04T00:51:04.344Z,3.375
2018-05-04T00:52:03.867Z,3.312
2018-05-04T00:53:03.399Z,3.312
2018-05-04T00:54:03.892Z,3.375
2018-05-04T00:55:03.936Z,3.437
2018-05-04T00:56:04.532Z,3.5
2018-05-04T00:57:03.925Z,3.562
2018-05-04T00:58:03.574Z,3.625
2018-05-04T00:59:03.660Z,3.562
2018-05-04T01:00:03.698Z,3.5
2018-05-04T01:01:03.384Z,3.5
2018-05-04T01:02:03.533Z,3.375
2018-05-04T01:03:03.938Z,3.437
2018-05-04T01:04:03.692Z,3.375
2018-05-04T01:05:04.285Z,3.375
2018-05-04T01:06:03.779Z,3.375
2018-05-04T01:07:04.332Z,3.625
2018-05-04T01:08:03.903Z,3.562
2018-05-04T01:09:03.697Z,3.562
2018-05-04T01:10:03.707Z,3.5
2018-05-04T01:11:04.143Z,3.5
2018-05-04T01:12:04.820Z,3.5
2018-05-04T01:13:04.057Z,3.437
2018-05-04T01:14:03.597Z,3.312
2018-05-04T01:15:04.270Z,3.25
2018-05-04T01:16:05.147Z,3.125
2018-05-04T01:17:03.669Z,3
2018-05-04T01:18:04.092Z,2.937
2018-05-04T01:19:03.698Z,2.875
2018-05-04T01:20:04.535Z,2.812
2018-05-04T01:21:04.035Z,2.75
2018-05-04T01:22:03.523Z,2.687
2018-05-04T01:23:03.600Z,2.625
2018-05-04T01:24:03.780Z,2.562
2018-05-04T01:25:03.803Z,2.625
2018-05-04T01:26:04.487Z,2.562
2018-05-04T01:27:03.850Z,2.5
2018-05-04T01:28:03.516Z,2.5
2018-05-04T01:29:22.713Z,2.437
2018-05-04T01:30:03.675Z,2.375
2018-05-04T01:31:04.027Z,2.375
2018-05-04T01:32:03.635Z,2.375
2018-05-04T01:33:04.015Z,2.312
2018-05-04T01:34:03.491Z,2.312
2018-05-04T01:35:04.114Z,2.312
2018-05-04T01:36:04.044Z,2.312
2018-05-04T01:37:03.376Z,2.25
2018-05-04T01:38:03.560Z,2.25
2018-05-04T01:39:04.544Z,2.25
2018-05-04T01:40:04.396Z,2.187
2018-05-04T01:41:03.769Z,2.125
2018-05-04T01:42:03.299Z,2.125
2018-05-04T01:43:03.694Z,2.125
2018-05-04T01:44:04.196Z,2.062
2018-05-04T01:45:03.581Z,2.062
2018-05-04T01:46:04.104Z,2
2018-05-04T01:47:03.617Z,2
2018-05-04T01:48:03.903Z,1.937
2018-05-04T01:49:03.989Z,1.937
2018-05-04T01:50:03.784Z,1.937
2018-05-04T01:51:04.510Z,1.875
2018-05-04T01:52:03.729Z,1.875
2018-05-04T01:53:04.108Z,1.875
2018-05-04T01:54:03.611Z,1.875
2018-05-04T01:55:03.905Z,1.875
2018-05-04T01:56:03.450Z,1.875
2018-05-04T01:57:03.878Z,1.812
2018-05-04T01:58:03.481Z,1.75
2018-05-04T01:59:04.149Z,1.812
2018-05-04T02:00:03.840Z,1.75
2018-05-04T02:01:04.366Z,1.75
2018-05-04T02:02:03.702Z,1.75
2018-05-04T02:03:03.817Z,1.687
2018-05-04T02:04:04.236Z,1.75
2018-05-04T02:05:03.807Z,1.75
2018-05-04T02:06:04.614Z,1.75
2018-05-04T02:07:04.054Z,1.687
2018-05-04T02:08:03.501Z,1.687
2018-05-04T02:09:04.462Z,1.687
2018-05-04T02:10:04.343Z,1.625
2018-05-04T02:11:03.457Z,1.687
2018-05-04T02:12:03.479Z,1.625
2018-05-04T02:13:04.211Z,1.625
2018-05-04T02:14:03.666Z,1.625
2018-05-04T02:15:04.975Z,1.625
2018-05-04T02:16:04.293Z,1.562
2018-05-04T02:17:03.970Z,1.562
2018-05-04T02:18:03.981Z,1.562
2018-05-04T02:19:03.686Z,1.5
2018-05-04T02:20:04.407Z,1.5
2018-05-04T02:21:04.755Z,1.562
2018-05-04T02:22:03.671Z,1.5
2018-05-04T02:23:04.284Z,1.5
2018-05-04T02:24:03.710Z,1.437
2018-05-04T02:25:03.617Z,1.375
2018-05-04T02:26:04.028Z,1.375
2018-05-04T02:27:03.454Z,1.375
2018-05-04T02:28:04.104Z,1.375
2018-05-04T02:29:03.894Z,1.375
2018-05-04T02:30:04.745Z,1.312
2018-05-04T02:31:03.971Z,1.312
2018-05-04T02:32:03.823Z,1.312
2018-05-04T02:33:04.266Z,1.312
2018-05-04T02:34:03.396Z,1.312
2018-05-04T02:35:03.822Z,1.312
2018-05-04T02:36:03.415Z,1.437
2018-05-04T02:37:03.762Z,1.437
2018-05-04T02:38:03.507Z,1.375
2018-05-04T02:39:04.455Z,1.375
2018-05-04T02:40:03.802Z,1.375
2018-05-04T02:41:03.737Z,1.312
2018-05-04T02:42:03.984Z,1.312
2018-05-04T02:43:03.491Z,1.375
2018-05-04T02:44:03.868Z,1.375
2018-05-04T02:45:03.437Z,1.312
2018-05-04T02:46:05.130Z,1.312
2018-05-04T02:47:03.552Z,1.25
2018-05-04T02:48:03.947Z,1.25
2018-05-04T02:49:03.664Z,1.312
2018-05-04T02:50:04.057Z,1.312
2018-05-04T02:51:03.673Z,1.312
2018-05-04T02:52:03.788Z,1.312
2018-05-04T02:53:03.643Z,1.312
2018-05-04T02:54:03.375Z,1.25
2018-05-04T02:55:03.990Z,1.25
2018-05-04T02:56:03.882Z,1.312
2018-05-04T02:57:03.496Z,1.25
2018-05-04T02:58:03.936Z,1.25
2018-05-04T02:59:03.456Z,1.25
2018-05-04T03:00:04.016Z,1.25
2018-05-04T03:01:03.577Z,1.25
2018-05-04T03:02:03.390Z,1.187
2018-05-04T03:03:03.847Z,1.187
2018-05-04T03:04:03.438Z,1.187
2018-05-04T03:05:03.757Z,1.187
2018-05-04T03:06:04.193Z,1.125
2018-05-04T03:07:03.591Z,1.125
2018-05-04T03:08:04.010Z,1.125
2018-05-04T03:09:04.397Z,1.125
2018-05-04T03:10:03.732Z,1.125
2018-05-04T03:11:04.622Z,1.125
2018-05-04T03:12:03.886Z,1.062
2018-05-04T03:13:04.288Z,1.125
2018-05-04T03:14:03.661Z,1.062
2018-05-04T03:15:04.014Z,1.062
2018-05-04T03:16:03.550Z,1
2018-05-04T03:17:03.429Z,1.062
2018-05-04T03:18:03.808Z,1
2018-05-04T03:19:03.384Z,1
2018-05-04T03:20:03.432Z,1
2018-05-04T03:21:03.792Z,1.062
2018-05-04T03:22:03.636Z,1.187
2018-05-04T03:23:04.213Z,1.312
2018-05-04T03:24:03.729Z,1.437
2018-05-04T03:25:04.206Z,1.625
2018-05-04T03:26:03.715Z,1.812
2018-05-04T03:27:03.375Z,2
2018-05-04T03:28:03.755Z,2
2018-05-04T03:29:04.246Z,2.062
2018-05-04T03:30:03.911Z,2.062
2018-05-04T03:31:03.548Z,2.062
2018-05-04T03:32:03.923Z,1.937
2018-05-04T03:33:03.729Z,1.875
2018-05-04T03:34:04.082Z,1.75
2018-05-04T03:35:04.160Z,1.687
2018-05-04T03:36:04.847Z,1.687
2018-05-04T03:37:04.973Z,1.687
2018-05-04T03:38:04.143Z,1.687
2018-05-04T03:39:03.779Z,1.687
2018-05-04T03:40:03.529Z,1.812
2018-05-04T03:41:04.014Z,1.937
2018-05-04T03:42:03.581Z,1.937
2018-05-04T03:43:04.150Z,2.187
2018-05-04T03:44:03.720Z,2.437
2018-05-04T03:45:03.889Z,2.562
2018-05-04T03:46:04.139Z,2.687
2018-05-04T03:47:03.314Z,2.937
2018-05-04T03:48:03.851Z,3.187
2018-05-04T03:49:04.193Z,3.375
2018-05-04T03:50:04.837Z,3.562
2018-05-04T03:51:04.882Z,3.687
2018-05-04T03:52:04.140Z,3.812
2018-05-04T03:53:03.682Z,3.937
2018-05-04T03:54:04.332Z,4.062
2018-05-04T03:55:03.844Z,4.25
2018-05-04T03:56:03.388Z,4.437
2018-05-04T03:57:03.420Z,4.625
2018-05-04T03:58:03.963Z,4.812
2018-05-04T03:59:03.398Z,5.062
2018-05-04T04:00:03.490Z,5.187
2018-05-04T04:01:04.486Z,5.375
2018-05-04T04:02:04.110Z,5.5
2018-05-04T04:03:03.469Z,5.625
2018-05-04T04:04:04.004Z,5.875
2018-05-04T04:05:04.212Z,5.937
2018-05-04T04:06:03.715Z,6.062
2018-05-04T04:07:04.014Z,6.25
2018-05-04T04:08:03.536Z,6.312
2018-05-04T04:09:04.195Z,6.5
2018-05-04T04:10:03.828Z,6.562
2018-05-04T04:11:03.409Z,6.75
2018-05-04T04:12:03.857Z,6.875
2018-05-04T04:13:04.285Z,7
2018-05-04T04:14:03.886Z,7.125
2018-05-04T04:15:04.463Z,7.375
2018-05-04T04:16:03.853Z,7.5
2018-05-04T04:17:03.431Z,7.625
2018-05-04T04:18:04.173Z,7.75
2018-05-04T04:19:03.604Z,7.937
2018-05-04T04:20:04.443Z,8.125
2018-05-04T04:21:03.759Z,8.25
2018-05-04T04:22:04.348Z,8.5
2018-05-04T04:23:03.709Z,8.687
2018-05-04T04:24:04.243Z,8.937
2018-05-04T04:25:04.260Z,9.062
2018-05-04T04:26:04.290Z,9.187
2018-05-04T04:27:03.544Z,9.437
2018-05-04T04:28:03.895Z,9.5
2018-05-04T04:29:03.369Z,9.75
2018-05-04T04:30:03.339Z,9.812
2018-05-04T04:31:03.953Z,10
2018-05-04T04:32:03.280Z,10
2018-05-04T04:33:03.914Z,10.187
2018-05-04T04:34:04.199Z,10.25
2018-05-04T04:35:03.786Z,10.5
2018-05-04T04:36:03.815Z,10.812
2018-05-04T04:37:03.321Z,11
2018-05-04T04:38:04.113Z,11.187
2018-05-04T04:39:04.610Z,11.312
2018-05-04T04:40:04.016Z,11.437
2018-05-04T04:41:04.091Z,11.625
2018-05-04T04:42:03.879Z,11.875
2018-05-04T04:43:03.376Z,12.187
2018-05-04T04:44:04.825Z,12.187
2018-05-04T04:45:03.971Z,12.5
2018-05-04T04:46:04.669Z,12.875
2018-05-04T04:47:03.924Z,13.125
2018-05-04T04:48:03.558Z,13.375
2018-05-04T04:49:03.801Z,13.437
2018-05-04T04:50:03.450Z,13.562
2018-05-04T04:51:03.987Z,13.875
2018-05-04T04:52:04.056Z,13.75
2018-05-04T04:53:03.504Z,13.875
2018-05-04T04:54:04.053Z,14.062
2018-05-04T04:55:03.828Z,14.125
2018-05-04T04:56:04.144Z,14.125
2018-05-04T04:57:03.407Z,14.125
2018-05-04T04:58:03.534Z,13.875
2018-05-04T04:59:03.980Z,14.125
2018-05-04T05:00:03.616Z,14.25
2018-05-04T05:01:03.769Z,14.312
2018-05-04T05:02:03.608Z,14.187
2018-05-04T05:03:04.084Z,14.062
2018-05-04T05:04:03.593Z,14.25
2018-05-04T05:05:03.908Z,14.562
2018-05-04T05:06:04.322Z,14.75
2018-05-04T05:07:03.769Z,14.875
2018-05-04T05:08:04.165Z,15.125
2018-05-04T05:09:03.952Z,15.25
2018-05-04T05:10:03.479Z,15.25
2018-05-04T05:11:05.515Z,15.375
2018-05-04T05:12:03.725Z,15.687
2018-05-04T05:13:03.466Z,15.687
2018-05-04T05:15:04.280Z,15.937
2018-05-04T05:16:03.721Z,15.687
2018-05-04T05:17:03.558Z,15.687
2018-05-04T05:18:04.000Z,15.687
2018-05-04T05:19:03.762Z,15.812
2018-05-04T05:20:04.085Z,16.125
2018-05-04T05:21:03.822Z,16.5
2018-05-04T05:22:03.486Z,16.25
2018-05-04T05:23:03.895Z,16.562
2018-05-04T05:24:03.481Z,16.5
2018-05-04T05:25:03.279Z,16.75
2018-05-04T05:26:04.765Z,16.875
2018-05-04T05:27:04.392Z,17
2018-05-04T05:28:03.852Z,17.437
2018-05-04T05:29:03.392Z,17.812
2018-05-04T05:30:04.313Z,17.687
2018-05-04T05:31:03.575Z,17.5
2018-05-04T05:32:04.139Z,17.437
2018-05-04T05:33:03.882Z,17.375
2018-05-04T05:34:03.320Z,17.5
2018-05-04T05:35:03.573Z,17.812
2018-05-04T05:36:03.827Z,18.062
2018-05-04T05:37:03.330Z,18.062
2018-05-04T05:38:03.693Z,18.375
2018-05-04T05:39:04.551Z,18.625
2018-05-04T05:40:03.923Z,18.875
2018-05-04T05:41:04.317Z,18.812
2018-05-04T05:42:04.084Z,18.875
2018-05-04T05:43:03.971Z,18.812
2018-05-04T05:44:04.306Z,18.937
2018-05-04T05:45:04.064Z,19.125
2018-05-04T05:46:03.624Z,19.437
2018-05-04T05:47:03.414Z,19.687
2018-05-04T05:48:03.732Z,20
2018-05-04T05:49:03.951Z,20.625
2018-05-04T05:50:04.230Z,20.812
2018-05-04T05:51:04.121Z,20.812
2018-05-04T05:52:03.866Z,21.187
2018-05-04T05:53:03.448Z,21.562
2018-05-04T05:54:03.974Z,21.312
2018-05-04T05:55:03.537Z,21.562
2018-05-04T05:56:04.115Z,20.937
2018-05-04T05:57:04.088Z,21.437
2018-05-04T05:58:03.503Z,21.437
2018-05-04T05:59:04.831Z,21.062
2018-05-04T06:00:04.357Z,21.375
2018-05-04T06:01:03.975Z,21.375
2018-05-04T06:02:03.442Z,21.625
2018-05-04T06:03:03.996Z,21.812
2018-05-04T06:04:03.775Z,21.375
2018-05-04T06:05:04.277Z,21.125
2018-05-04T06:06:05.670Z,21.187
2018-05-04T06:07:03.874Z,21.5
2018-05-04T06:08:03.583Z,21.375
2018-05-04T06:09:04.692Z,22
2018-05-04T06:10:04.001Z,22.437
2018-05-04T06:11:03.525Z,22.062
2018-05-04T06:12:04.188Z,22
2018-05-04T06:13:03.558Z,22.125
2018-05-04T06:14:03.353Z,21.625
2018-05-04T06:15:03.924Z,21.812
2018-05-04T06:16:04.433Z,21.812
2018-05-04T06:17:04.197Z,21.687
2018-05-04T06:18:03.658Z,21.812
2018-05-04T06:19:04.118Z,22
2018-05-04T06:20:03.870Z,22.375
2018-05-04T06:21:04.916Z,22.25
2018-05-04T06:22:03.986Z,22.562
2018-05-04T06:23:04.422Z,23.187
2018-05-04T06:24:03.454Z,23.5
2018-05-04T06:25:04.929Z,23.437
2018-05-04T06:26:04.324Z,23.5
2018-05-04T06:27:03.796Z,24.25
2018-05-04T06:28:03.461Z,24.125
2018-05-04T06:29:03.908Z,23.937
2018-05-04T06:30:03.452Z,23.75
2018-05-04T06:31:03.929Z,23.75
2018-05-04T06:32:03.600Z,23.937
2018-05-04T06:33:04.198Z,24.437
2018-05-04T06:34:04.110Z,24.625
2018-05-04T06:35:03.560Z,24.687
2018-05-04T06:36:03.982Z,24.562
2018-05-04T06:37:04.298Z,24.75
2018-05-04T06:38:03.685Z,24.562
2018-05-04T06:39:04.356Z,24.625
2018-05-04T06:40:04.086Z,24.625
2018-05-04T06:41:03.813Z,24.375
2018-05-04T06:42:03.379Z,24.375
2018-05-04T06:43:03.819Z,23.75
2018-05-04T06:44:03.604Z,23.875
2018-05-04T06:45:04.118Z,24.062
2018-05-04T06:46:03.762Z,24.437
2018-05-04T06:47:04.054Z,24.437
2018-05-04T06:48:03.484Z,24.312
2018-05-04T06:49:03.479Z,24.687
2018-05-04T06:50:05.830Z,24.812
2018-05-04T06:51:04.913Z,24.437
2018-05-04T06:52:04.279Z,24.687
2018-05-04T06:53:03.689Z,24.437
2018-05-04T06:54:03.676Z,23.75
2018-05-04T06:55:04.203Z,23.812
2018-05-04T06:56:03.999Z,24.25
2018-05-04T06:57:03.987Z,24.625
2018-05-04T06:58:04.099Z,24.937
2018-05-04T06:59:03.615Z,25.312
2018-05-04T07:00:04.100Z,25.187
2018-05-04T07:01:05.154Z,24.812
2018-05-04T07:02:03.441Z,24.937
2018-05-04T07:03:03.854Z,24.812
2018-05-04T07:04:03.450Z,25.125
2018-05-04T07:05:04.219Z,25.625
2018-05-04T07:06:03.691Z,25.812
2018-05-04T07:07:03.533Z,26
2018-05-04T07:08:03.961Z,26.125
2018-05-04T07:09:03.930Z,26.625
2018-05-04T07:10:04.078Z,26.312
2018-05-04T07:11:04.538Z,26.125
2018-05-04T07:12:03.742Z,25.937
2018-05-04T07:13:04.269Z,25.937
2018-05-04T07:14:03.701Z,26.25
2018-05-04T07:15:04.230Z,26.375
2018-05-04T07:16:03.805Z,26.25
2018-05-04T07:17:03.616Z,25.937
2018-05-04T07:18:04.076Z,25.312
2018-05-04T07:19:03.573Z,25
2018-05-04T07:20:04.296Z,24.75
2018-05-04T07:21:03.929Z,24.812
2018-05-04T07:22:03.745Z,24.812
2018-05-04T07:23:04.159Z,25.25
2018-05-04T07:24:03.580Z,24.75
2018-05-04T07:25:03.623Z,24.812
2018-05-04T07:26:04.002Z,24.812
2018-05-04T07:27:04.196Z,25.125
2018-05-04T07:28:03.544Z,25.312
2018-05-04T07:29:04.079Z,25.812
2018-05-04T07:30:04.530Z,25.875
2018-05-04T07:31:04.211Z,26.312
2018-05-04T07:32:03.888Z,26.125
2018-05-04T07:33:04.209Z,25.375
2018-05-04T07:34:03.485Z,24.625
2018-05-04T07:35:06.530Z,24.562
2018-05-04T07:36:03.936Z,24.5
2018-05-04T07:37:04.213Z,24.187
2018-05-04T07:38:03.756Z,24.062
2018-05-04T07:39:03.826Z,23.75
2018-05-04T07:40:03.905Z,24.125
2018-05-04T07:41:04.021Z,24.125
2018-05-04T07:42:03.387Z,24.312
2018-05-04T07:43:04.331Z,24.312
2018-05-04T07:44:03.619Z,24.687
2018-05-04T07:45:03.871Z,24.75
2018-05-04T07:46:03.826Z,25
2018-05-04T07:47:04.475Z,25.562
2018-05-04T07:48:03.925Z,26.25
2018-05-04T07:49:03.753Z,25.625
2018-05-04T07:50:04.205Z,24.75
2018-05-04T07:51:04.107Z,24.25
2018-05-04T07:52:03.752Z,24
2018-05-04T07:53:03.843Z,24.187
2018-05-04T07:54:04.200Z,24.5
2018-05-04T07:55:03.748Z,25.25
2018-05-04T07:56:04.945Z,24.75
2018-05-04T07:57:04.336Z,24.937
2018-05-04T07:58:04.263Z,25
2018-05-04T07:59:04.002Z,25.25
2018-05-04T08:00:04.762Z,25
2018-05-04T08:01:03.924Z,24.812
2018-05-04T08:02:04.744Z,24.562
2018-05-04T08:03:03.941Z,24.812
2018-05-04T08:04:03.329Z,25.562
2018-05-04T08:05:04.186Z,25.187
2018-05-04T08:06:04.559Z,24.812
2018-05-04T08:07:04.829Z,25.062
2018-05-04T08:08:04.105Z,24.875
2018-05-04T08:09:04.467Z,25.062
2018-05-04T08:10:04.716Z,24.937
2018-05-04T08:11:03.933Z,25.687
2018-05-04T08:12:03.927Z,25.937
2018-05-04T08:13:04.055Z,26.375
2018-05-04T08:14:03.490Z,26.062
2018-05-04T08:15:04.094Z,25.875
2018-05-04T08:16:03.823Z,25.812
2018-05-04T08:17:03.567Z,25.687
2018-05-04T08:18:04.213Z,25.562
2018-05-04T08:19:03.574Z,25.562
2018-05-04T08:20:04.611Z,26.125
2018-05-04T08:21:04.205Z,25.437
2018-05-04T08:22:03.660Z,25.187
2018-05-04T08:23:04.105Z,25.312
2018-05-04T08:24:03.604Z,25.25
2018-05-04T08:25:04.759Z,25.125
2018-05-04T08:26:04.024Z,26
2018-05-04T08:27:04.265Z,25.687
2018-05-04T08:28:03.710Z,25.25
2018-05-04T08:29:03.348Z,25.812
2018-05-04T08:30:04.078Z,26.437
2018-05-04T08:31:04.123Z,26.5
2018-05-04T08:32:03.875Z,26.75
2018-05-04T08:33:03.409Z,26.875
2018-05-04T08:34:03.539Z,26.5
2018-05-04T08:35:03.866Z,25.562
2018-05-04T08:36:04.873Z,25.625
2018-05-04T08:37:04.161Z,25.687
2018-05-04T08:38:03.575Z,26.25
2018-05-04T08:39:04.366Z,26.25
2018-05-04T08:40:03.814Z,26
2018-05-04T08:41:03.477Z,26.5
2018-05-04T08:42:03.477Z,26.375
2018-05-04T08:43:03.859Z,26.687
2018-05-04T08:44:03.426Z,26.687
2018-05-04T08:45:03.961Z,27.062
2018-05-04T08:46:04.191Z,26.5
2018-05-04T08:47:04.061Z,24.937
2018-05-04T08:48:03.417Z,24.75
2018-05-04T08:49:04.177Z,24.312
2018-05-04T08:50:04.039Z,24.625
2018-05-04T08:51:03.936Z,24.812
2018-05-04T08:52:04.017Z,25.75
2018-05-04T08:53:03.636Z,26.687
2018-05-04T08:54:03.481Z,27.375
2018-05-04T08:55:04.892Z,27.25
2018-05-04T08:56:04.295Z,27.625
2018-05-04T08:57:04.322Z,27
2018-05-04T08:58:03.603Z,26
2018-05-04T08:59:04.120Z,25.875
2018-05-04T09:00:05.501Z,25.812
2018-05-04T09:01:03.886Z,25.125
2018-05-04T09:02:03.950Z,25.562
2018-05-04T09:03:03.406Z,25.5
2018-05-04T09:04:03.905Z,25.687
2018-05-04T09:05:03.407Z,25.375
2018-05-04T09:06:03.880Z,25.187
2018-05-04T09:07:03.406Z,25.875
2018-05-04T09:08:03.718Z,25.937
2018-05-04T09:09:04.378Z,25.75
2018-05-04T09:10:03.831Z,26
2018-05-04T09:11:04.433Z,26.062
2018-05-04T09:12:03.712Z,26.062
2018-05-04T09:13:04.186Z,25.812
2018-05-04T09:14:03.676Z,25.687
2018-05-04T09:15:04.379Z,25.937
2018-05-04T09:16:03.958Z,25.75
2018-05-04T09:17:04.353Z,25.687
2018-05-04T09:18:03.785Z,25.5
2018-05-04T09:19:03.362Z,25.937
2018-05-04T09:20:04.023Z,25.75
2018-05-04T09:21:03.784Z,25.812
2018-05-04T09:22:04.170Z,26.125
2018-05-04T09:23:03.582Z,26.687
2018-05-04T09:24:04.218Z,27.437
2018-05-04T09:25:03.767Z,28
2018-05-04T09:26:04.808Z,28.5
2018-05-04T09:27:04.067Z,28.937
2018-05-04T09:28:03.607Z,28.437
2018-05-04T09:29:03.503Z,28.375
2018-05-04T09:30:05.134Z,28.875
2018-05-04T09:31:03.520Z,29.187
2018-05-04T09:32:04.416Z,29.187
2018-05-04T09:33:03.721Z,28.5
2018-05-04T09:34:04.197Z,27.562
2018-05-04T09:35:03.496Z,26.687
2018-05-04T09:36:03.982Z,25.625
2018-05-04T09:37:03.577Z,25.875
2018-05-04T09:38:04.097Z,25.5
2018-05-04T09:39:04.832Z,25.375
2018-05-04T09:40:03.859Z,25.437
2018-05-04T09:41:05.323Z,24.937
2018-05-04T09:42:03.691Z,25.812
2018-05-04T09:43:04.135Z,26.062
2018-05-04T09:44:03.557Z,26
2018-05-04T09:45:04.047Z,25.937
2018-05-04T09:46:03.479Z,26.312
2018-05-04T09:47:04.273Z,25.5
2018-05-04T09:48:03.811Z,25.5
2018-05-04T09:49:04.179Z,25.937
2018-05-04T09:50:04.962Z,25.812
2018-05-04T09:51:05.030Z,25.937
2018-05-04T09:52:04.290Z,26.437
2018-05-04T09:53:03.875Z,26.437
2018-05-04T09:54:03.527Z,26.125
2018-05-04T09:55:03.881Z,25.75
2018-05-04T09:56:04.237Z,26
2018-05-04T09:57:04.164Z,26
2018-05-04T09:58:03.665Z,25.5
2018-05-04T09:59:04.192Z,25.375
2018-05-04T10:00:03.705Z,25.187
2018-05-04T10:01:04.312Z,25.062
2018-05-04T10:02:03.596Z,24.875
2018-05-04T10:03:03.994Z,25
2018-05-04T10:04:03.377Z,25
2018-05-04T10:05:04.505Z,25.5
2018-05-04T10:06:03.939Z,26
2018-05-04T10:07:03.410Z,26.5
2018-05-04T10:08:03.998Z,26.687
2018-05-04T10:09:03.519Z,26.875
2018-05-04T10:10:03.640Z,26.812
2018-05-04T10:11:04.065Z,26.812
2018-05-04T10:12:03.832Z,25.937
2018-05-04T10:13:04.203Z,25.625
2018-05-04T10:14:03.765Z,25.312
2018-05-04T10:15:04.252Z,25.312
2018-05-04T10:16:04.276Z,25.125
2018-05-04T10:17:03.715Z,25.375
2018-05-04T10:18:03.957Z,25.875
2018-05-04T10:19:03.298Z,25.687
2018-05-04T10:20:03.811Z,25.562
2018-05-04T10:22:04.013Z,25.812
2018-05-04T10:23:04.041Z,26.125
2018-05-04T10:24:03.769Z,26
2018-05-04T10:25:04.285Z,25.937
2018-05-04T10:26:03.953Z,25.937
2018-05-04T10:27:03.316Z,25.875
2018-05-04T10:28:03.890Z,26.375
2018-05-04T10:29:03.469Z,26.25
2018-05-04T10:30:04.197Z,25.687
2018-05-04T10:31:04.013Z,24.875
2018-05-04T10:32:04.248Z,24.937
2018-05-04T10:33:04.090Z,24.875
2018-05-04T10:34:03.768Z,24.562
2018-05-04T10:35:03.785Z,25.375
2018-05-04T10:36:04.211Z,25.25
2018-05-04T10:37:04.037Z,25.562
2018-05-04T10:38:03.598Z,26
2018-05-04T10:39:04.484Z,25.937
2018-05-04T10:40:03.932Z,25.625
2018-05-04T10:41:03.602Z,25.062
2018-05-04T10:42:04.107Z,25.25
2018-05-04T10:43:03.614Z,24.687
2018-05-04T10:44:04.205Z,25.062
2018-05-04T10:45:04.038Z,24.937
2018-05-04T10:46:04.201Z,25
2018-05-04T10:47:03.427Z,25.312
2018-05-04T10:48:04.163Z,25.187
2018-05-04T10:49:03.608Z,25.562
2018-05-04T10:50:03.546Z,25.625
2018-05-04T10:51:04.169Z,25
2018-05-04T10:52:03.738Z,24.875
2018-05-04T10:53:04.129Z,24.812
2018-05-04T10:54:03.597Z,25
2018-05-04T10:55:04.129Z,24.875
2018-05-04T10:56:04.383Z,24.437
2018-05-04T10:57:03.742Z,24.437
2018-05-04T10:58:03.374Z,24.5
2018-05-04T10:59:03.787Z,24.687
2018-05-04T11:00:04.201Z,24.812
2018-05-04T11:01:03.759Z,24.625
2018-05-04T11:02:04.136Z,24.5
2018-05-04T11:03:03.618Z,24.687
2018-05-04T11:04:04.153Z,24.687
2018-05-04T11:05:04.073Z,24.75
2018-05-04T11:06:03.344Z,25.062
2018-05-04T11:07:03.860Z,25.312
2018-05-04T11:08:03.301Z,25.5
2018-05-04T11:09:03.900Z,25
2018-05-04T11:10:03.617Z,24.812
2018-05-04T11:11:04.226Z,24.375
2018-05-04T11:12:03.726Z,24.187
2018-05-04T11:13:04.312Z,24.562
2018-05-04T11:14:03.574Z,24.875
2018-05-04T11:15:04.117Z,25.312
2018-05-04T11:16:04.537Z,25.562
2018-05-04T11:17:03.969Z,25.562
2018-05-04T11:18:03.491Z,25.062
2018-05-04T11:19:03.981Z,25
2018-05-04T11:20:03.642Z,25.25
2018-05-04T11:21:04.073Z,24.875
2018-05-04T11:22:03.337Z,24.562
2018-05-04T11:23:03.819Z,24.812
2018-05-04T11:24:03.366Z,24.437
2018-05-04T11:25:03.331Z,24.187
2018-05-04T11:26:04.205Z,24
2018-05-04T11:27:03.760Z,24.062
2018-05-04T11:28:04.161Z,24
2018-05-04T11:29:04.139Z,23.625
2018-05-04T11:30:03.432Z,23.75
2018-05-04T11:31:04.071Z,23.812
2018-05-04T11:32:03.400Z,24.5
2018-05-04T11:33:03.830Z,24.812
2018-05-04T11:34:03.445Z,24.75
2018-05-04T11:35:03.881Z,24.5
2018-05-04T11:36:04.307Z,24
2018-05-04T11:37:03.783Z,23.562
2018-05-04T11:38:04.264Z,23.375
2018-05-04T11:39:04.201Z,23.437
2018-05-04T11:40:03.608Z,23.562
2018-05-04T11:41:04.110Z,23.375
2018-05-04T11:42:03.681Z,23.25
2018-05-04T11:43:04.090Z,23.062
2018-05-04T11:44:03.378Z,23.062
2018-05-04T11:45:04.312Z,23.375
2018-05-04T11:46:03.952Z,23.562
2018-05-04T11:47:03.946Z,23.687
2018-05-04T11:48:03.424Z,23.312
2018-05-04T11:49:03.968Z,23.187
2018-05-04T11:50:03.515Z,23.437
2018-05-04T11:51:04.754Z,23.625
2018-05-04T11:52:05.009Z,23.812
2018-05-04T11:53:03.349Z,24.625
2018-05-04T11:54:03.777Z,24.5
2018-05-04T11:55:04.296Z,24.187
2018-05-04T11:56:03.684Z,24.062
2018-05-04T11:57:03.729Z,24.125
2018-05-04T11:58:03.413Z,24.437
2018-05-04T11:59:03.868Z,24.75
2018-05-04T12:00:04.595Z,24.625
2018-05-04T12:01:04.091Z,24.062
2018-05-04T12:02:04.017Z,24.125
2018-05-04T12:03:03.405Z,23.437
2018-05-04T12:04:04.260Z,23
2018-05-04T12:05:03.689Z,23.312
2018-05-04T12:06:05.255Z,23.625
2018-05-04T12:07:03.680Z,24.375
2018-05-04T12:08:04.234Z,24.687
2018-05-04T12:09:03.781Z,24.125
2018-05-04T12:10:03.640Z,24.25
2018-05-04T12:11:04.167Z,24.187
2018-05-04T12:12:03.626Z,23.75
2018-05-04T12:13:04.149Z,23.562
2018-05-04T12:14:03.540Z,24
2018-05-04T12:15:04.157Z,24.25
2018-05-04T12:16:03.888Z,24.437
2018-05-04T12:17:04.396Z,24.062
2018-05-04T12:18:03.986Z,23.812
2018-05-04T12:19:04.317Z,23.375
2018-05-04T12:20:03.701Z,23
2018-05-04T12:21:04.324Z,23.125
2018-05-04T12:22:03.922Z,23.312
2018-05-04T12:23:03.374Z,23.5
2018-05-04T12:24:03.837Z,23.562
2018-05-04T12:25:04.274Z,23.312
2018-05-04T12:26:03.729Z,23.25
2018-05-04T12:27:03.558Z,23.375
2018-05-04T12:28:04.007Z,23
2018-05-04T12:29:03.577Z,22.812
2018-05-04T12:30:04.586Z,22.812
2018-05-04T12:31:03.785Z,23.062
2018-05-04T12:32:03.742Z,22.625
2018-05-04T12:33:09.088Z,22.75
2018-05-04T12:34:03.341Z,22.75
2018-05-04T12:35:03.887Z,22.625
2018-05-04T12:36:03.676Z,22.687
2018-05-04T12:37:04.176Z,22.5
2018-05-04T12:38:03.680Z,22.5
2018-05-04T12:39:04.490Z,22.562
2018-05-04T12:40:04.193Z,22.562
2018-05-04T12:41:03.473Z,22.312
2018-05-04T12:42:03.635Z,22.187
2018-05-04T12:43:04.211Z,22.375
2018-05-04T12:44:03.777Z,22.062
2018-05-04T12:45:03.449Z,21.75
2018-05-04T12:46:04.271Z,21.75
2018-05-04T12:47:03.932Z,21.625
2018-05-04T12:48:03.412Z,21.812
2018-05-04T12:49:03.495Z,21.75
2018-05-04T12:50:03.833Z,21.5
2018-05-04T12:51:03.871Z,21.312